createdAt,value
2023-05-01T00:02:18.725Z,8.9
2023-05-01T00:12:19.052Z,8.6
2023-05-01T01:42:24.240Z,6.8
2023-05-01T02:52:28.505Z,7.5
2023-05-01T03:12:28.805Z,7.6
2023-05-01T03:32:29.563Z,7.7
2023-05-01T04:22:33.007Z,7.6
2023-05-01T05:02:35.340Z,7.7
2023-05-01T05:22:36.357Z,8.1
2023-05-01T05:42:38.135Z,8.7
2023-05-01T05:52:38.323Z,8.9
2023-05-01T06:02:39.501Z,9.1
2023-05-01T08:02:45.913Z,12.6
2023-05-01T09:42:52.283Z,18.5
2023-05-01T09:52:52.978Z,19
2023-05-01T10:02:54.058Z,19.2
2023-05-01T10:12:54.150Z,19.2
2023-05-01T10:32:55.158Z,20
2023-05-01T10:42:56.040Z,20
2023-05-01T10:52:56.980Z,20.6
2023-05-01T11:02:57.839Z,21.1
2023-05-01T11:12:58.312Z,21
2023-05-01T11:42:59.920Z,21.2
2023-05-01T11:53:00.283Z,20.9
2023-05-01T12:03:00.865Z,20.1
2023-05-01T12:13:01.385Z,19.9
2023-05-01T12:23:01.565Z,19.7
2023-05-01T13:13:06.325Z,19.1
2023-05-01T13:23:06.855Z,18.9
2023-05-01T13:33:08.001Z,18.7
2023-05-01T14:33:11.961Z,18.9
2023-05-01T14:43:12.577Z,18.6
2023-05-01T15:23:15.416Z,17.6
2023-05-01T15:33:17.974Z,16.6
2023-05-01T15:53:17.873Z,15.6
2023-05-01T16:03:18.747Z,15.7
2023-05-01T16:13:19.200Z,15.5
2023-05-01T16:33:20.425Z,15.3
2023-05-01T16:53:21.371Z,15.6
2023-05-01T17:03:22.359Z,15.5
2023-05-01T17:23:22.870Z,15
2023-05-01T17:33:23.483Z,14.7
2023-05-01T17:43:24.096Z,14.5
2023-05-01T17:53:24.538Z,14.4
2023-05-01T18:03:25.516Z,14.2
2023-05-01T18:13:26.213Z,14
2023-05-01T18:23:26.618Z,13.7
2023-05-01T18:33:27.671Z,13.5
2023-05-01T18:43:28.476Z,13.3
2023-05-01T18:53:28.656Z,13.1
2023-05-01T19:03:29.355Z,13
2023-05-01T19:13:29.636Z,13.2
2023-05-01T19:23:30.386Z,13.4
2023-05-01T19:33:31.073Z,13.6
2023-05-01T19:43:31.844Z,13.7
2023-05-01T19:53:32.291Z,13.8
2023-05-01T20:03:32.778Z,13.7
2023-05-01T20:13:33.201Z,13.6
2023-05-01T20:23:34.152Z,13.5
2023-05-01T20:33:34.779Z,13.4
2023-05-01T20:43:34.915Z,13.1
2023-05-01T20:53:35.053Z,12.8
2023-05-01T21:13:37.057Z,12.4
2023-05-01T21:23:37.532Z,12.5
2023-05-01T21:33:38.002Z,12.4
2023-05-01T21:43:39.037Z,12.5
2023-05-01T21:53:39.908Z,12.4
2023-05-01T22:03:41.068Z,12.3
2023-05-01T22:13:41.160Z,12.1
2023-05-01T22:23:42.151Z,12
2023-05-01T22:33:42.482Z,12
2023-05-01T22:43:43.406Z,12
2023-05-01T22:53:44.221Z,11.9
2023-05-01T23:03:45.034Z,11.9
2023-05-01T23:23:46.367Z,11.7
2023-05-01T23:53:47.992Z,10.7
